sensor_id;sensor_type;location;lat;lon;timestamp;noise_LAeq;noise_LA_min;noise_LA_max;noise_LA01;noise_LA95
77729;Laerm;68312;53.502;10.030;2023-04-29T00:00:36;45.29;42.22;54.44;;
77729;Laerm;68312;53.502;10.030;2023-04-29T00:03:02;46.31;41.22;53.31;;
77729;Laerm;68312;53.502;10.030;2023-04-29T00:05:27;46.36;43.14;52.12;;
77729;Laerm;68312;53.502;10.030;2023-04-29T00:07:53;45.37;41.94;51.26;;
77729;Laerm;68312;53.502;10.030;2023-04-29T00:10:18;47.15;42.56;55.58;;
77729;Laerm;68312;53.502;10.030;2023-04-29T00:12:44;47.24;44.07;51.06;;
77729;Laerm;68312;53.502;10.030;2023-04-29T00:15:10;46.15;41.94;50.86;;
77729;Laerm;68312;53.502;10.030;2023-04-29T00:17:35;45.47;41.06;54.67;;
77729;Laerm;68312;53.502;10.030;2023-04-29T00:20:02;45.77;42.15;57.40;;
77729;Laerm;68312;53.502;10.030;2023-04-29T00:22:27;45.24;41.18;50.20;;
77729;Laerm;68312;53.502;10.030;2023-04-29T00:24:53;47.04;42.04;60.96;;
77729;Laerm;68312;53.502;10.030;2023-04-29T00:27:18;45.75;42.07;51.24;;
77729;Laerm;68312;53.502;10.030;2023-04-29T00:29:44;46.88;42.58;58.22;;
77729;Laerm;68312;53.502;10.030;2023-04-29T00:37:54;45.22;40.39;55.79;;
77729;Laerm;68312;53.502;10.030;2023-04-29T00:40:19;44.82;41.15;48.77;;
77729;Laerm;68312;53.502;10.030;2023-04-29T00:42:45;45.38;40.95;57.57;;
77729;Laerm;68312;53.502;10.030;2023-04-29T00:45:11;46.20;42.30;55.48;;
77729;Laerm;68312;53.502;10.030;2023-04-29T00:47:37;45.46;40.44;57.37;;
77729;Laerm;68312;53.502;10.030;2023-04-29T00:50:05;44.61;41.25;51.78;;
77729;Laerm;68312;53.502;10.030;2023-04-29T00:52:31;44.13;40.15;50.98;;
77729;Laerm;68312;53.502;10.030;2023-04-29T00:54:58;44.94;40.47;56.18;;
77729;Laerm;68312;53.502;10.030;2023-04-29T00:57:25;44.05;40.86;48.47;;
77729;Laerm;68312;53.502;10.030;2023-04-29T00:59:51;43.74;39.12;48.20;;
77729;Laerm;68312;53.502;10.030;2023-04-29T01:02:17;44.37;39.17;49.98;;
77729;Laerm;68312;53.502;10.030;2023-04-29T01:04:46;44.05;40.55;48.02;;
77729;Laerm;68312;53.502;10.030;2023-04-29T01:07:31;44.11;41.04;50.99;;
77729;Laerm;68312;53.502;10.030;2023-04-29T01:10:14;43.41;40.17;48.21;;
77729;Laerm;68312;53.502;10.030;2023-04-29T01:13:15;42.79;40.03;46.44;;
77729;Laerm;68312;53.502;10.030;2023-04-29T01:16:10;42.81;38.86;51.14;;
77729;Laerm;68312;53.502;10.030;2023-04-29T01:18:46;45.36;41.90;49.98;;
77729;Laerm;68312;53.502;10.030;2023-04-29T01:21:14;43.61;39.28;48.25;;
77729;Laerm;68312;53.502;10.030;2023-04-29T01:23:39;42.78;39.19;46.78;;
77729;Laerm;68312;53.502;10.030;2023-04-29T01:26:05;43.25;39.64;47.63;;
77729;Laerm;68312;53.502;10.030;2023-04-29T01:29:29;43.42;40.10;49.50;;
77729;Laerm;68312;53.502;10.030;2023-04-29T01:32:17;42.49;38.59;45.75;;
77729;Laerm;68312;53.502;10.030;2023-04-29T01:38:17;43.63;39.65;49.05;;
77729;Laerm;68312;53.502;10.030;2023-04-29T01:43:37;42.71;39.53;47.27;;
77729;Laerm;68312;53.502;10.030;2023-04-29T01:46:08;42.76;39.11;48.74;;
77729;Laerm;68312;53.502;10.030;2023-04-29T01:48:35;42.71;38.55;52.52;;
77729;Laerm;68312;53.502;10.030;2023-04-29T01:51:00;42.55;39.64;46.84;;
77729;Laerm;68312;53.502;10.030;2023-04-29T01:53:26;43.49;40.46;47.40;;
77729;Laerm;68312;53.502;10.030;2023-04-29T01:55:52;42.28;37.48;47.03;;
77729;Laerm;68312;53.502;10.030;2023-04-29T01:58:17;43.07;39.98;48.17;;
77729;Laerm;68312;53.502;10.030;2023-04-29T02:00:42;41.35;37.27;45.23;;
77729;Laerm;68312;53.502;10.030;2023-04-29T02:03:08;42.21;38.86;45.48;;
77729;Laerm;68312;53.502;10.030;2023-04-29T02:05:33;41.96;38.61;46.46;;
77729;Laerm;68312;53.502;10.030;2023-04-29T02:07:59;41.76;38.22;49.77;;
77729;Laerm;68312;53.502;10.030;2023-04-29T02:10:25;42.16;38.36;48.88;;
77729;Laerm;68312;53.502;10.030;2023-04-29T02:12:51;43.39;40.02;47.44;;
77729;Laerm;68312;53.502;10.030;2023-04-29T02:15:20;41.80;38.22;45.05;;
77729;Laerm;68312;53.502;10.030;2023-04-29T02:17:45;42.36;39.03;45.81;;
77729;Laerm;68312;53.502;10.030;2023-04-29T02:20:11;42.12;39.67;44.90;;
77729;Laerm;68312;53.502;10.030;2023-04-29T02:22:37;42.96;39.84;46.78;;
77729;Laerm;68312;53.502;10.030;2023-04-29T02:25:03;43.27;39.69;50.79;;
77729;Laerm;68312;53.502;10.030;2023-04-29T02:27:29;42.03;38.20;49.49;;
77729;Laerm;68312;53.502;10.030;2023-04-29T02:29:54;42.27;38.99;49.93;;
77729;Laerm;68312;53.502;10.030;2023-04-29T02:32:19;42.63;38.38;52.38;;
77729;Laerm;68312;53.502;10.030;2023-04-29T02:34:45;41.99;37.93;51.75;;
77729;Laerm;68312;53.502;10.030;2023-04-29T02:37:11;42.76;38.98;50.94;;
77729;Laerm;68312;53.502;10.030;2023-04-29T02:39:36;42.73;39.75;50.61;;
77729;Laerm;68312;53.502;10.030;2023-04-29T02:42:02;43.07;39.22;57.68;;
77729;Laerm;68312;53.502;10.030;2023-04-29T02:44:28;43.17;39.92;48.72;;
77729;Laerm;68312;53.502;10.030;2023-04-29T02:46:53;44.78;40.07;59.42;;
77729;Laerm;68312;53.502;10.030;2023-04-29T02:49:19;49.56;40.37;67.32;;
77729;Laerm;68312;53.502;10.030;2023-04-29T02:51:44;43.48;39.06;52.11;;
77729;Laerm;68312;53.502;10.030;2023-04-29T02:54:10;43.59;40.52;50.72;;
77729;Laerm;68312;53.502;10.030;2023-04-29T02:56:35;42.94;39.31;50.85;;
77729;Laerm;68312;53.502;10.030;2023-04-29T02:59:01;43.84;39.68;55.93;;
77729;Laerm;68312;53.502;10.030;2023-04-29T03:01:26;43.55;40.14;50.03;;
77729;Laerm;68312;53.502;10.030;2023-04-29T03:03:52;43.23;39.00;52.04;;
77729;Laerm;68312;53.502;10.030;2023-04-29T03:06:17;43.77;40.17;52.20;;
77729;Laerm;68312;53.502;10.030;2023-04-29T03:08:43;43.42;39.05;51.34;;
77729;Laerm;68312;53.502;10.030;2023-04-29T03:11:08;44.03;39.63;51.81;;
77729;Laerm;68312;53.502;10.030;2023-04-29T03:13:34;44.43;40.19;56.88;;
77729;Laerm;68312;53.502;10.030;2023-04-29T03:15:59;45.52;39.46;55.97;;
77729;Laerm;68312;53.502;10.030;2023-04-29T03:18:25;45.57;39.68;56.62;;
77729;Laerm;68312;53.502;10.030;2023-04-29T03:20:50;47.37;40.16;61.70;;
77729;Laerm;68312;53.502;10.030;2023-04-29T03:23:16;45.24;41.12;56.34;;
77729;Laerm;68312;53.502;10.030;2023-04-29T03:25:41;45.52;41.61;56.22;;
77729;Laerm;68312;53.502;10.030;2023-04-29T03:28:06;44.29;40.84;49.62;;
77729;Laerm;68312;53.502;10.030;2023-04-29T03:30:32;45.20;41.47;55.14;;
77729;Laerm;68312;53.502;10.030;2023-04-29T03:32:57;45.30;40.52;62.89;;
77729;Laerm;68312;53.502;10.030;2023-04-29T03:35:23;46.80;40.26;69.98;;
77729;Laerm;68312;53.502;10.030;2023-04-29T03:37:48;43.24;39.46;56.77;;
77729;Laerm;68312;53.502;10.030;2023-04-29T03:40:14;43.46;39.54;55.75;;
77729;Laerm;68312;53.502;10.030;2023-04-29T03:42:42;42.89;39.60;48.15;;
77729;Laerm;68312;53.502;10.030;2023-04-29T03:45:09;43.72;40.53;53.92;;
77729;Laerm;68312;53.502;10.030;2023-04-29T03:47:35;44.29;40.73;59.70;;
77729;Laerm;68312;53.502;10.030;2023-04-29T03:50:00;44.48;41.08;51.01;;
77729;Laerm;68312;53.502;10.030;2023-04-29T03:52:26;43.97;40.16;53.07;;
77729;Laerm;68312;53.502;10.030;2023-04-29T03:54:51;43.53;39.33;54.57;;
77729;Laerm;68312;53.502;10.030;2023-04-29T03:57:17;44.40;39.59;56.00;;
77729;Laerm;68312;53.502;10.030;2023-04-29T03:59:42;43.52;39.37;57.07;;
77729;Laerm;68312;53.502;10.030;2023-04-29T04:02:07;45.86;38.93;57.40;;
77729;Laerm;68312;53.502;10.030;2023-04-29T04:04:33;45.90;38.73;60.36;;
77729;Laerm;68312;53.502;10.030;2023-04-29T04:06:58;44.30;39.86;54.38;;
77729;Laerm;68312;53.502;10.030;2023-04-29T04:09:24;44.99;38.73;59.16;;
77729;Laerm;68312;53.502;10.030;2023-04-29T04:11:49;42.55;38.96;50.24;;
77729;Laerm;68312;53.502;10.030;2023-04-29T04:14:17;43.86;39.28;56.40;;
77729;Laerm;68312;53.502;10.030;2023-04-29T04:16:43;43.90;39.54;52.61;;
77729;Laerm;68312;53.502;10.030;2023-04-29T04:19:08;44.86;39.91;59.82;;
77729;Laerm;68312;53.502;10.030;2023-04-29T04:21:34;46.61;40.83;56.91;;
77729;Laerm;68312;53.502;10.030;2023-04-29T04:23:59;43.78;40.96;48.55;;
77729;Laerm;68312;53.502;10.030;2023-04-29T04:26:25;44.13;40.17;53.65;;
77729;Laerm;68312;53.502;10.030;2023-04-29T04:28:50;45.09;41.22;52.14;;
77729;Laerm;68312;53.502;10.030;2023-04-29T04:31:16;44.61;41.09;53.33;;
77729;Laerm;68312;53.502;10.030;2023-04-29T04:33:41;45.70;41.48;60.23;;
77729;Laerm;68312;53.502;10.030;2023-04-29T04:36:07;45.64;41.95;56.80;;
77729;Laerm;68312;53.502;10.030;2023-04-29T04:38:32;44.35;40.62;58.84;;
77729;Laerm;68312;53.502;10.030;2023-04-29T04:40:58;46.54;40.62;61.08;;
77729;Laerm;68312;53.502;10.030;2023-04-29T04:43:23;44.42;40.82;55.31;;
77729;Laerm;68312;53.502;10.030;2023-04-29T04:45:49;44.61;41.45;55.08;;
77729;Laerm;68312;53.502;10.030;2023-04-29T04:48:14;43.73;39.84;56.95;;
77729;Laerm;68312;53.502;10.030;2023-04-29T04:50:40;49.18;40.63;78.67;;
77729;Laerm;68312;53.502;10.030;2023-04-29T04:53:05;46.38;41.61;59.18;;
77729;Laerm;68312;53.502;10.030;2023-04-29T04:55:31;45.01;39.79;56.44;;
77729;Laerm;68312;53.502;10.030;2023-04-29T04:57:57;45.27;40.45;59.07;;
77729;Laerm;68312;53.502;10.030;2023-04-29T05:00:22;43.87;38.59;57.13;;
77729;Laerm;68312;53.502;10.030;2023-04-29T05:02:48;46.10;39.40;60.31;;
77729;Laerm;68312;53.502;10.030;2023-04-29T05:05:13;44.88;40.94;58.69;;
77729;Laerm;68312;53.502;10.030;2023-04-29T05:07:39;45.53;40.32;57.81;;
77729;Laerm;68312;53.502;10.030;2023-04-29T05:10:05;46.13;40.29;55.81;;
77729;Laerm;68312;53.502;10.030;2023-04-29T05:12:31;44.62;40.83;53.05;;
77729;Laerm;68312;53.502;10.030;2023-04-29T05:14:57;43.58;40.12;52.46;;
77729;Laerm;68312;53.502;10.030;2023-04-29T05:17:22;45.13;40.28;58.25;;
77729;Laerm;68312;53.502;10.030;2023-04-29T05:19:48;46.06;40.77;74.11;;
77729;Laerm;68312;53.502;10.030;2023-04-29T05:22:14;43.98;40.35;57.84;;
77729;Laerm;68312;53.502;10.030;2023-04-29T05:24:40;44.13;41.08;52.78;;
77729;Laerm;68312;53.502;10.030;2023-04-29T05:27:05;52.37;40.90;71.52;;
77729;Laerm;68312;53.502;10.030;2023-04-29T05:29:31;45.87;41.50;54.89;;
77729;Laerm;68312;53.502;10.030;2023-04-29T05:31:56;44.75;41.28;50.89;;
77729;Laerm;68312;53.502;10.030;2023-04-29T05:34:22;43.59;39.78;54.84;;
77729;Laerm;68312;53.502;10.030;2023-04-29T05:36:47;46.74;40.84;58.87;;
77729;Laerm;68312;53.502;10.030;2023-04-29T05:39:13;43.75;39.92;57.38;;
77729;Laerm;68312;53.502;10.030;2023-04-29T05:41:38;44.77;40.58;63.99;;
77729;Laerm;68312;53.502;10.030;2023-04-29T05:44:04;44.76;41.12;55.99;;
77729;Laerm;68312;53.502;10.030;2023-04-29T05:46:29;46.33;41.14;57.06;;
77729;Laerm;68312;53.502;10.030;2023-04-29T05:48:55;45.26;40.91;64.84;;
77729;Laerm;68312;53.502;10.030;2023-04-29T05:51:20;47.29;40.19;67.19;;
77729;Laerm;68312;53.502;10.030;2023-04-29T05:53:46;43.87;39.17;64.96;;
77729;Laerm;68312;53.502;10.030;2023-04-29T05:56:11;47.55;40.31;60.91;;
77729;Laerm;68312;53.502;10.030;2023-04-29T05:58:36;44.67;40.49;56.52;;
77729;Laerm;68312;53.502;10.030;2023-04-29T06:01:02;44.26;41.12;51.46;;
77729;Laerm;68312;53.502;10.030;2023-04-29T06:03:28;45.08;39.89;61.32;;
77729;Laerm;68312;53.502;10.030;2023-04-29T06:05:54;42.73;39.69;55.85;;
77729;Laerm;68312;53.502;10.030;2023-04-29T06:08:20;43.74;39.27;62.85;;
77729;Laerm;68312;53.502;10.030;2023-04-29T06:10:45;44.01;41.05;63.49;;
77729;Laerm;68312;53.502;10.030;2023-04-29T06:13:11;43.54;40.24;54.53;;
77729;Laerm;68312;53.502;10.030;2023-04-29T06:15:37;45.48;40.20;55.30;;
77729;Laerm;68312;53.502;10.030;2023-04-29T06:18:03;44.08;39.88;59.14;;
77729;Laerm;68312;53.502;10.030;2023-04-29T06:20:31;48.65;40.87;80.43;;
77729;Laerm;68312;53.502;10.030;2023-04-29T06:22:56;45.28;40.62;60.60;;
77729;Laerm;68312;53.502;10.030;2023-04-29T06:25:22;44.59;40.87;55.42;;
77729;Laerm;68312;53.502;10.030;2023-04-29T06:27:47;46.99;40.75;69.67;;
77729;Laerm;68312;53.502;10.030;2023-04-29T06:30:13;44.30;41.16;52.94;;
77729;Laerm;68312;53.502;10.030;2023-04-29T06:32:39;44.68;40.54;57.22;;
77729;Laerm;68312;53.502;10.030;2023-04-29T06:35:05;44.45;40.83;59.97;;
77729;Laerm;68312;53.502;10.030;2023-04-29T06:37:31;46.15;42.35;53.79;;
77729;Laerm;68312;53.502;10.030;2023-04-29T06:39:56;45.65;40.95;57.90;;
77729;Laerm;68312;53.502;10.030;2023-04-29T06:42:22;45.11;40.11;56.74;;
77729;Laerm;68312;53.502;10.030;2023-04-29T06:44:47;44.66;41.02;57.49;;
77729;Laerm;68312;53.502;10.030;2023-04-29T06:47:13;45.31;41.60;49.62;;
77729;Laerm;68312;53.502;10.030;2023-04-29T06:49:38;45.93;42.01;58.09;;
77729;Laerm;68312;53.502;10.030;2023-04-29T06:52:04;45.78;40.96;60.44;;
77729;Laerm;68312;53.502;10.030;2023-04-29T06:54:30;45.65;41.34;58.41;;
77729;Laerm;68312;53.502;10.030;2023-04-29T06:56:55;44.17;40.30;59.09;;
77729;Laerm;68312;53.502;10.030;2023-04-29T06:59:21;43.91;39.97;56.83;;
77729;Laerm;68312;53.502;10.030;2023-04-29T07:01:46;45.19;40.80;57.43;;
77729;Laerm;68312;53.502;10.030;2023-04-29T07:04:11;46.86;42.15;59.33;;
77729;Laerm;68312;53.502;10.030;2023-04-29T07:06:37;46.18;41.22;60.09;;
77729;Laerm;68312;53.502;10.030;2023-04-29T07:09:03;44.74;41.37;58.62;;
77729;Laerm;68312;53.502;10.030;2023-04-29T07:11:28;45.11;41.12;60.57;;
77729;Laerm;68312;53.502;10.030;2023-04-29T07:13:54;54.01;42.92;64.41;;
77729;Laerm;68312;53.502;10.030;2023-04-29T07:16:19;47.74;42.94;56.11;;
77729;Laerm;68312;53.502;10.030;2023-04-29T07:18:45;53.09;43.13;61.17;;
77729;Laerm;68312;53.502;10.030;2023-04-29T07:21:10;46.89;42.10;64.68;;
77729;Laerm;68312;53.502;10.030;2023-04-29T07:23:36;49.79;41.70;69.37;;
77729;Laerm;68312;53.502;10.030;2023-04-29T07:26:11;47.53;41.31;66.33;;
77729;Laerm;68312;53.502;10.030;2023-04-29T07:28:37;45.74;41.27;55.23;;
77729;Laerm;68312;53.502;10.030;2023-04-29T07:31:03;44.90;40.90;54.56;;
77729;Laerm;68312;53.502;10.030;2023-04-29T07:33:28;45.40;40.60;58.58;;
77729;Laerm;68312;53.502;10.030;2023-04-29T07:35:54;45.42;41.43;52.87;;
77729;Laerm;68312;53.502;10.030;2023-04-29T07:38:19;46.05;42.25;55.08;;
77729;Laerm;68312;53.502;10.030;2023-04-29T07:40:45;45.39;39.60;63.48;;
77729;Laerm;68312;53.502;10.030;2023-04-29T07:43:11;45.67;41.18;55.99;;
77729;Laerm;68312;53.502;10.030;2023-04-29T07:45:36;44.78;38.79;57.50;;
77729;Laerm;68312;53.502;10.030;2023-04-29T07:48:02;42.82;38.46;55.83;;
77729;Laerm;68312;53.502;10.030;2023-04-29T07:50:27;43.24;38.83;56.23;;
77729;Laerm;68312;53.502;10.030;2023-04-29T07:52:53;43.22;39.27;54.52;;
77729;Laerm;68312;53.502;10.030;2023-04-29T07:55:21;46.59;40.38;61.86;;
77729;Laerm;68312;53.502;10.030;2023-04-29T07:57:46;43.58;38.68;56.74;;
77729;Laerm;68312;53.502;10.030;2023-04-29T08:00:12;45.48;39.94;56.23;;
77729;Laerm;68312;53.502;10.030;2023-04-29T08:02:38;47.50;41.01;57.27;;
77729;Laerm;68312;53.502;10.030;2023-04-29T08:05:03;44.21;38.96;58.89;;
77729;Laerm;68312;53.502;10.030;2023-04-29T08:07:29;45.24;39.27;59.77;;
77729;Laerm;68312;53.502;10.030;2023-04-29T08:09:54;43.76;39.46;59.06;;
77729;Laerm;68312;53.502;10.030;2023-04-29T08:12:20;44.73;39.20;54.36;;
77729;Laerm;68312;53.502;10.030;2023-04-29T08:14:45;44.99;39.55;55.23;;
77729;Laerm;68312;53.502;10.030;2023-04-29T08:17:11;44.90;38.18;58.90;;
77729;Laerm;68312;53.502;10.030;2023-04-29T08:19:36;43.06;38.22;52.62;;
77729;Laerm;68312;53.502;10.030;2023-04-29T08:22:02;42.76;38.19;54.37;;
77729;Laerm;68312;53.502;10.030;2023-04-29T08:24:27;42.40;37.82;54.54;;
77729;Laerm;68312;53.502;10.030;2023-04-29T08:26:53;46.06;38.98;56.25;;
77729;Laerm;68312;53.502;10.030;2023-04-29T08:29:18;47.35;39.05;70.71;;
77729;Laerm;68312;53.502;10.030;2023-04-29T08:31:44;47.38;37.86;75.35;;
77729;Laerm;68312;53.502;10.030;2023-04-29T08:34:09;48.75;38.17;70.19;;
77729;Laerm;68312;53.502;10.030;2023-04-29T08:36:35;43.44;37.74;59.17;;
77729;Laerm;68312;53.502;10.030;2023-04-29T08:39:00;49.05;37.89;66.65;;
77729;Laerm;68312;53.502;10.030;2023-04-29T08:41:26;49.70;37.25;68.33;;
77729;Laerm;68312;53.502;10.030;2023-04-29T08:43:51;48.76;39.04;66.55;;
77729;Laerm;68312;53.502;10.030;2023-04-29T08:46:17;47.87;38.51;67.67;;
77729;Laerm;68312;53.502;10.030;2023-04-29T08:48:44;48.23;38.88;70.04;;
77729;Laerm;68312;53.502;10.030;2023-04-29T08:51:13;45.10;37.48;57.93;;
77729;Laerm;68312;53.502;10.030;2023-04-29T08:53:39;44.79;37.91;61.13;;
77729;Laerm;68312;53.502;10.030;2023-04-29T08:56:15;44.74;36.94;61.10;;
77729;Laerm;68312;53.502;10.030;2023-04-29T08:58:41;46.93;39.40;63.89;;
77729;Laerm;68312;53.502;10.030;2023-04-29T09:01:08;44.07;39.08;62.22;;
77729;Laerm;68312;53.502;10.030;2023-04-29T09:06:33;41.72;36.52;56.17;;
77729;Laerm;68312;53.502;10.030;2023-04-29T09:09:02;43.18;37.62;54.61;;
77729;Laerm;68312;53.502;10.030;2023-04-29T09:11:29;47.85;37.35;72.91;;
77729;Laerm;68312;53.502;10.030;2023-04-29T09:14:02;42.89;37.62;55.85;;
77729;Laerm;68312;53.502;10.030;2023-04-29T09:16:28;45.84;37.33;60.79;;
77729;Laerm;68312;53.502;10.030;2023-04-29T09:18:54;44.96;37.35;62.44;;
77729;Laerm;68312;53.502;10.030;2023-04-29T09:21:26;42.20;37.76;55.62;;
77729;Laerm;68312;53.502;10.030;2023-04-29T09:23:56;42.79;37.02;61.11;;
77729;Laerm;68312;53.502;10.030;2023-04-29T09:26:23;40.65;36.77;55.10;;
77729;Laerm;68312;53.502;10.030;2023-04-29T09:29:11;42.19;36.74;53.43;;
77729;Laerm;68312;53.502;10.030;2023-04-29T09:31:37;42.72;36.71;53.48;;
77729;Laerm;68312;53.502;10.030;2023-04-29T09:34:03;44.70;36.62;61.28;;
77729;Laerm;68312;53.502;10.030;2023-04-29T09:39:19;42.36;36.97;58.33;;
77729;Laerm;68312;53.502;10.030;2023-04-29T09:44:22;45.96;36.91;66.68;;
77729;Laerm;68312;53.502;10.030;2023-04-29T09:47:06;43.03;36.43;54.99;;
77729;Laerm;68312;53.502;10.030;2023-04-29T09:49:35;42.19;37.10;55.42;;
77729;Laerm;68312;53.502;10.030;2023-04-29T09:52:11;42.27;36.57;60.84;;
77729;Laerm;68312;53.502;10.030;2023-04-29T09:54:40;43.43;37.47;64.98;;
77729;Laerm;68312;53.502;10.030;2023-04-29T09:57:09;43.18;36.64;56.39;;
77729;Laerm;68312;53.502;10.030;2023-04-29T09:59:38;41.42;37.27;55.24;;
77729;Laerm;68312;53.502;10.030;2023-04-29T10:02:17;43.86;38.63;56.51;;
77729;Laerm;68312;53.502;10.030;2023-04-29T10:04:53;45.26;38.48;58.27;;
77729;Laerm;68312;53.502;10.030;2023-04-29T10:07:20;43.62;37.68;55.79;;
77729;Laerm;68312;53.502;10.030;2023-04-29T10:09:47;47.92;39.34;64.24;;
77729;Laerm;68312;53.502;10.030;2023-04-29T10:12:17;44.12;37.57;59.49;;
77729;Laerm;68312;53.502;10.030;2023-04-29T10:17:53;45.34;38.41;55.88;;
77729;Laerm;68312;53.502;10.030;2023-04-29T10:20:24;44.56;39.38;60.69;;
77729;Laerm;68312;53.502;10.030;2023-04-29T10:22:53;47.20;39.66;64.82;;
77729;Laerm;68312;53.502;10.030;2023-04-29T10:25:21;43.49;38.10;60.67;;
77729;Laerm;68312;53.502;10.030;2023-04-29T10:27:49;45.35;38.26;61.98;;
77729;Laerm;68312;53.502;10.030;2023-04-29T10:30:17;45.50;39.26;58.59;;
77729;Laerm;68312;53.502;10.030;2023-04-29T10:32:45;46.77;38.91;58.89;;
77729;Laerm;68312;53.502;10.030;2023-04-29T10:35:14;48.36;39.52;69.34;;
77729;Laerm;68312;53.502;10.030;2023-04-29T10:37:43;44.48;38.47;61.26;;
77729;Laerm;68312;53.502;10.030;2023-04-29T10:40:23;46.40;38.86;62.13;;
77729;Laerm;68312;53.502;10.030;2023-04-29T10:42:53;46.99;38.51;62.26;;
77729;Laerm;68312;53.502;10.030;2023-04-29T10:45:27;46.46;39.55;57.50;;
77729;Laerm;68312;53.502;10.030;2023-04-29T10:53:18;43.89;37.01;56.87;;
77729;Laerm;68312;53.502;10.030;2023-04-29T10:56:08;43.74;37.45;57.43;;
77729;Laerm;68312;53.502;10.030;2023-04-29T10:58:36;41.80;36.58;49.73;;
77729;Laerm;68312;53.502;10.030;2023-04-29T11:01:03;43.58;37.83;55.20;;
77729;Laerm;68312;53.502;10.030;2023-04-29T11:03:54;43.69;37.68;56.14;;
77729;Laerm;68312;53.502;10.030;2023-04-29T11:09:15;45.16;38.84;59.55;;
77729;Laerm;68312;53.502;10.030;2023-04-29T11:11:48;47.01;39.60;60.84;;
77729;Laerm;68312;53.502;10.030;2023-04-29T11:14:42;46.11;39.51;58.09;;
77729;Laerm;68312;53.502;10.030;2023-04-29T11:17:17;45.16;39.34;58.59;;
77729;Laerm;68312;53.502;10.030;2023-04-29T11:19:46;46.87;39.31;60.53;;
77729;Laerm;68312;53.502;10.030;2023-04-29T11:22:29;44.78;37.45;61.27;;
77729;Laerm;68312;53.502;10.030;2023-04-29T11:25:03;44.14;37.10;56.65;;
77729;Laerm;68312;53.502;10.030;2023-04-29T11:27:36;44.11;38.34;55.36;;
77729;Laerm;68312;53.502;10.030;2023-04-29T11:30:05;43.12;37.89;52.45;;
77729;Laerm;68312;53.502;10.030;2023-04-29T11:32:37;47.45;39.55;59.36;;
77729;Laerm;68312;53.502;10.030;2023-04-29T11:35:15;43.80;37.74;53.27;;
77729;Laerm;68312;53.502;10.030;2023-04-29T11:37:44;45.03;38.46;60.50;;
77729;Laerm;68312;53.502;10.030;2023-04-29T11:40:12;41.25;36.59;52.07;;
77729;Laerm;68312;53.502;10.030;2023-04-29T11:42:45;44.38;38.46;59.26;;
77729;Laerm;68312;53.502;10.030;2023-04-29T11:45:12;44.74;38.59;61.54;;
77729;Laerm;68312;53.502;10.030;2023-04-29T11:47:43;42.64;37.27;59.45;;
77729;Laerm;68312;53.502;10.030;2023-04-29T11:50:09;46.82;39.42;69.44;;
77729;Laerm;68312;53.502;10.030;2023-04-29T11:52:38;41.05;35.35;53.05;;
77729;Laerm;68312;53.502;10.030;2023-04-29T11:55:07;41.39;35.91;56.27;;
77729;Laerm;68312;53.502;10.030;2023-04-29T11:57:33;40.21;36.52;49.80;;
77729;Laerm;68312;53.502;10.030;2023-04-29T11:59:58;43.83;38.05;59.70;;
77729;Laerm;68312;53.502;10.030;2023-04-29T12:02:33;42.19;36.51;53.15;;
77729;Laerm;68312;53.502;10.030;2023-04-29T12:05:05;41.19;36.80;60.96;;
77729;Laerm;68312;53.502;10.030;2023-04-29T12:07:31;43.41;37.72;55.48;;
77729;Laerm;68312;53.502;10.030;2023-04-29T12:09:57;47.12;38.18;68.54;;
77729;Laerm;68312;53.502;10.030;2023-04-29T12:12:23;43.64;37.11;59.79;;
77729;Laerm;68312;53.502;10.030;2023-04-29T12:14:49;45.08;38.25;58.36;;
77729;Laerm;68312;53.502;10.030;2023-04-29T12:17:15;44.61;38.42;60.07;;
77729;Laerm;68312;53.502;10.030;2023-04-29T12:19:41;47.10;37.07;72.52;;
77729;Laerm;68312;53.502;10.030;2023-04-29T12:22:06;45.77;37.65;63.23;;
77729;Laerm;68312;53.502;10.030;2023-04-29T12:24:36;44.49;39.37;56.10;;
77729;Laerm;68312;53.502;10.030;2023-04-29T12:27:02;48.43;39.01;62.41;;
77729;Laerm;68312;53.502;10.030;2023-04-29T12:29:28;44.33;38.08;55.61;;
77729;Laerm;68312;53.502;10.030;2023-04-29T12:31:55;47.64;38.86;63.60;;
77729;Laerm;68312;53.502;10.030;2023-04-29T12:34:32;43.79;38.38;54.00;;
77729;Laerm;68312;53.502;10.030;2023-04-29T12:36:59;46.36;39.40;55.33;;
77729;Laerm;68312;53.502;10.030;2023-04-29T12:39:28;46.33;37.53;58.31;;
77729;Laerm;68312;53.502;10.030;2023-04-29T12:41:57;46.05;37.56;60.30;;
77729;Laerm;68312;53.502;10.030;2023-04-29T12:44:24;45.80;38.80;62.55;;
77729;Laerm;68312;53.502;10.030;2023-04-29T12:46:50;44.86;40.07;56.57;;
77729;Laerm;68312;53.502;10.030;2023-04-29T12:49:17;45.70;40.33;56.01;;
77729;Laerm;68312;53.502;10.030;2023-04-29T12:51:42;45.71;40.21;58.52;;
77729;Laerm;68312;53.502;10.030;2023-04-29T12:54:08;45.22;39.83;60.61;;
77729;Laerm;68312;53.502;10.030;2023-04-29T12:56:33;46.59;39.28;63.34;;
77729;Laerm;68312;53.502;10.030;2023-04-29T12:59:09;45.37;39.14;59.63;;
77729;Laerm;68312;53.502;10.030;2023-04-29T13:01:36;43.55;39.09;52.81;;
77729;Laerm;68312;53.502;10.030;2023-04-29T13:04:02;48.47;39.91;73.12;;
77729;Laerm;68312;53.502;10.030;2023-04-29T13:06:27;48.31;40.00;61.74;;
77729;Laerm;68312;53.502;10.030;2023-04-29T13:08:53;45.04;38.83;59.45;;
77729;Laerm;68312;53.502;10.030;2023-04-29T13:11:19;45.51;39.05;62.58;;
77729;Laerm;68312;53.502;10.030;2023-04-29T13:13:44;46.17;39.81;65.10;;
77729;Laerm;68312;53.502;10.030;2023-04-29T13:16:10;45.16;39.19;59.11;;
77729;Laerm;68312;53.502;10.030;2023-04-29T13:18:35;48.87;40.98;64.32;;
77729;Laerm;68312;53.502;10.030;2023-04-29T13:21:01;49.70;41.16;66.00;;
77729;Laerm;68312;53.502;10.030;2023-04-29T13:23:26;49.31;41.89;64.07;;
77729;Laerm;68312;53.502;10.030;2023-04-29T13:25:52;65.75;42.83;98.38;;
77729;Laerm;68312;53.502;10.030;2023-04-29T13:28:17;46.92;39.69;57.88;;
77729;Laerm;68312;53.502;10.030;2023-04-29T13:30:43;48.33;40.66;61.68;;
77729;Laerm;68312;53.502;10.030;2023-04-29T13:33:08;47.17;41.09;57.42;;
77729;Laerm;68312;53.502;10.030;2023-04-29T13:35:34;47.69;39.43;60.50;;
77729;Laerm;68312;53.502;10.030;2023-04-29T13:37:59;48.02;40.90;65.22;;
77729;Laerm;68312;53.502;10.030;2023-04-29T13:40:25;46.85;41.70;57.02;;
77729;Laerm;68312;53.502;10.030;2023-04-29T13:42:50;59.11;41.01;86.26;;
77729;Laerm;68312;53.502;10.030;2023-04-29T13:45:16;47.13;40.53;59.58;;
77729;Laerm;68312;53.502;10.030;2023-04-29T13:47:41;49.91;38.86;65.10;;
77729;Laerm;68312;53.502;10.030;2023-04-29T13:50:07;47.65;39.42;61.20;;
77729;Laerm;68312;53.502;10.030;2023-04-29T13:52:33;43.79;38.70;52.96;;
77729;Laerm;68312;53.502;10.030;2023-04-29T13:54:58;46.67;39.27;58.52;;
77729;Laerm;68312;53.502;10.030;2023-04-29T13:57:24;49.67;41.66;65.51;;
77729;Laerm;68312;53.502;10.030;2023-04-29T13:59:49;48.89;41.27;66.28;;
77729;Laerm;68312;53.502;10.030;2023-04-29T14:02:15;46.76;40.85;59.00;;
77729;Laerm;68312;53.502;10.030;2023-04-29T14:04:40;46.80;40.53;62.39;;